sensor_id;sensor_type;location;lat;lon;timestamp;temperature;humidity
21033;DHT22;10675;47.976;7.824;2022-11-20T00:00:53;7.80;99.90
21033;DHT22;10675;47.976;7.824;2022-11-20T00:03:19;7.80;99.90
21033;DHT22;10675;47.976;7.824;2022-11-20T00:05:45;7.70;99.90
21033;DHT22;10675;47.976;7.824;2022-11-20T00:08:10;7.70;99.90
21033;DHT22;10675;47.976;7.824;2022-11-20T00:10:37;7.70;99.90
21033;DHT22;10675;47.976;7.824;2022-11-20T00:13:03;7.70;99.90
21033;DHT22;10675;47.976;7.824;2022-11-20T00:15:28;7.70;99.90
21033;DHT22;10675;47.976;7.824;2022-11-20T00:17:54;7.70;99.90
21033;DHT22;10675;47.976;7.824;2022-11-20T00:20:19;7.60;99.90
21033;DHT22;10675;47.976;7.824;2022-11-20T00:22:45;7.60;99.90
21033;DHT22;10675;47.976;7.824;2022-11-20T00:25:10;7.60;99.90
21033;DHT22;10675;47.976;7.824;2022-11-20T00:27:36;7.60;99.90
21033;DHT22;10675;47.976;7.824;2022-11-20T00:30:02;7.60;99.90
21033;DHT22;10675;47.976;7.824;2022-11-20T00:32:28;7.60;99.90
21033;DHT22;10675;47.976;7.824;2022-11-20T00:34:54;7.60;99.90
21033;DHT22;10675;47.976;7.824;2022-11-20T00:37:20;7.60;99.90
21033;DHT22;10675;47.976;7.824;2022-11-20T00:39:45;7.50;99.90
21033;DHT22;10675;47.976;7.824;2022-11-20T00:42:11;7.50;99.90
21033;DHT22;10675;47.976;7.824;2022-11-20T00:44:36;7.50;99.90
21033;DHT22;10675;47.976;7.824;2022-11-20T00:47:02;7.50;99.90
21033;DHT22;10675;47.976;7.824;2022-11-20T00:49:27;7.40;99.90
21033;DHT22;10675;47.976;7.824;2022-11-20T00:51:53;7.40;99.90
21033;DHT22;10675;47.976;7.824;2022-11-20T00:54:18;7.40;99.90
21033;DHT22;10675;47.976;7.824;2022-11-20T00:56:44;7.40;99.90
21033;DHT22;10675;47.976;7.824;2022-11-20T00:59:10;7.30;99.90
21033;DHT22;10675;47.976;7.824;2022-11-20T01:01:36;7.40;99.90
21033;DHT22;10675;47.976;7.824;2022-11-20T01:04:02;7.30;99.90
21033;DHT22;10675;47.976;7.824;2022-11-20T01:06:35;7.30;99.90
21033;DHT22;10675;47.976;7.824;2022-11-20T01:09:13;7.30;99.90
21033;DHT22;10675;47.976;7.824;2022-11-20T01:11:42;7.40;99.90
21033;DHT22;10675;47.976;7.824;2022-11-20T01:14:12;7.40;99.90
21033;DHT22;10675;47.976;7.824;2022-11-20T01:16:44;7.40;99.90
21033;DHT22;10675;47.976;7.824;2022-11-20T01:19:13;7.70;99.90
21033;DHT22;10675;47.976;7.824;2022-11-20T01:21:40;7.40;99.90
21033;DHT22;10675;47.976;7.824;2022-11-20T01:24:08;7.40;99.90
21033;DHT22;10675;47.976;7.824;2022-11-20T01:26:38;7.40;99.90
21033;DHT22;10675;47.976;7.824;2022-11-20T01:29:05;7.40;99.90
21033;DHT22;10675;47.976;7.824;2022-11-20T01:31:36;7.40;99.90
21033;DHT22;10675;47.976;7.824;2022-11-20T01:34:07;7.40;99.90
21033;DHT22;10675;47.976;7.824;2022-11-20T01:36:35;7.40;99.90
21033;DHT22;10675;47.976;7.824;2022-11-20T01:39:04;7.40;99.90
21033;DHT22;10675;47.976;7.824;2022-11-20T01:41:32;7.40;99.90
21033;DHT22;10675;47.976;7.824;2022-11-20T01:44:22;7.40;99.90
21033;DHT22;10675;47.976;7.824;2022-11-20T01:46:59;7.40;99.90
21033;DHT22;10675;47.976;7.824;2022-11-20T01:49:37;7.40;99.90
21033;DHT22;10675;47.976;7.824;2022-11-20T01:52:32;7.40;99.90
21033;DHT22;10675;47.976;7.824;2022-11-20T01:55:00;7.60;99.90
21033;DHT22;10675;47.976;7.824;2022-11-20T01:57:28;7.60;99.90
21033;DHT22;10675;47.976;7.824;2022-11-20T02:00:02;7.50;99.90
21033;DHT22;10675;47.976;7.824;2022-11-20T02:02:28;7.50;99.90
21033;DHT22;10675;47.976;7.824;2022-11-20T02:04:56;7.40;99.90
21033;DHT22;10675;47.976;7.824;2022-11-20T02:07:26;7.50;99.90
21033;DHT22;10675;47.976;7.824;2022-11-20T02:09:53;7.50;99.90
21033;DHT22;10675;47.976;7.824;2022-11-20T02:12:18;7.50;99.90
21033;DHT22;10675;47.976;7.824;2022-11-20T02:15:03;7.50;99.90
21033;DHT22;10675;47.976;7.824;2022-11-20T02:17:29;7.50;99.90
21033;DHT22;10675;47.976;7.824;2022-11-20T02:19:55;7.60;99.90
21033;DHT22;10675;47.976;7.824;2022-11-20T02:22:35;7.60;99.90
21033;DHT22;10675;47.976;7.824;2022-11-20T02:25:03;7.60;99.90
21033;DHT22;10675;47.976;7.824;2022-11-20T02:27:29;7.60;99.90
21033;DHT22;10675;47.976;7.824;2022-11-20T02:30:01;7.70;99.90
21033;DHT22;10675;47.976;7.824;2022-11-20T02:32:35;7.70;99.90
21033;DHT22;10675;47.976;7.824;2022-11-20T02:37:59;7.60;99.90
21033;DHT22;10675;47.976;7.824;2022-11-20T02:40:25;7.60;99.90
21033;DHT22;10675;47.976;7.824;2022-11-20T02:42:55;7.60;99.90
21033;DHT22;10675;47.976;7.824;2022-11-20T02:45:21;7.60;99.90
21033;DHT22;10675;47.976;7.824;2022-11-20T02:47:48;7.60;99.90
21033;DHT22;10675;47.976;7.824;2022-11-20T02:50:14;7.70;99.90
21033;DHT22;10675;47.976;7.824;2022-11-20T02:52:39;7.60;99.90
21033;DHT22;10675;47.976;7.824;2022-11-20T02:55:05;7.70;99.90
21033;DHT22;10675;47.976;7.824;2022-11-20T02:57:31;7.70;99.90
21033;DHT22;10675;47.976;7.824;2022-11-20T02:59:56;7.10;99.90
21033;DHT22;10675;47.976;7.824;2022-11-20T03:02:22;7.70;99.90
21033;DHT22;10675;47.976;7.824;2022-11-20T03:04:47;7.60;99.90
21033;DHT22;10675;47.976;7.824;2022-11-20T03:07:13;7.60;99.90
21033;DHT22;10675;47.976;7.824;2022-11-20T03:09:38;7.60;99.90
21033;DHT22;10675;47.976;7.824;2022-11-20T03:12:04;7.60;99.90
21033;DHT22;10675;47.976;7.824;2022-11-20T03:14:30;7.60;99.90
21033;DHT22;10675;47.976;7.824;2022-11-20T03:16:56;7.50;99.90
21033;DHT22;10675;47.976;7.824;2022-11-20T03:19:21;7.50;99.90
21033;DHT22;10675;47.976;7.824;2022-11-20T03:21:47;7.50;99.90
21033;DHT22;10675;47.976;7.824;2022-11-20T03:24:13;7.50;99.90
21033;DHT22;10675;47.976;7.824;2022-11-20T03:26:39;7.50;99.90
21033;DHT22;10675;47.976;7.824;2022-11-20T03:29:05;7.50;99.90
21033;DHT22;10675;47.976;7.824;2022-11-20T03:31:33;7.50;99.90
21033;DHT22;10675;47.976;7.824;2022-11-20T03:34:00;7.50;99.90
21033;DHT22;10675;47.976;7.824;2022-11-20T03:36:26;7.50;99.90
21033;DHT22;10675;47.976;7.824;2022-11-20T03:38:56;7.50;99.90
21033;DHT22;10675;47.976;7.824;2022-11-20T03:41:27;7.50;99.90
21033;DHT22;10675;47.976;7.824;2022-11-20T03:43:55;7.50;99.90
21033;DHT22;10675;47.976;7.824;2022-11-20T03:46:21;7.50;99.90
21033;DHT22;10675;47.976;7.824;2022-11-20T03:48:48;7.50;99.90
21033;DHT22;10675;47.976;7.824;2022-11-20T03:51:19;7.50;99.90
21033;DHT22;10675;47.976;7.824;2022-11-20T03:53:47;7.50;99.90
21033;DHT22;10675;47.976;7.824;2022-11-20T03:56:15;7.50;99.90
21033;DHT22;10675;47.976;7.824;2022-11-20T03:58:42;7.60;99.90
21033;DHT22;10675;47.976;7.824;2022-11-20T04:01:09;7.60;99.90
21033;DHT22;10675;47.976;7.824;2022-11-20T04:03:35;7.70;99.90
21033;DHT22;10675;47.976;7.824;2022-11-20T04:06:05;7.60;99.90
21033;DHT22;10675;47.976;7.824;2022-11-20T04:08:31;7.60;99.90
21033;DHT22;10675;47.976;7.824;2022-11-20T04:11:14;7.60;99.90
21033;DHT22;10675;47.976;7.824;2022-11-20T04:13:40;7.60;99.90
21033;DHT22;10675;47.976;7.824;2022-11-20T04:16:07;7.60;99.90
21033;DHT22;10675;47.976;7.824;2022-11-20T04:18:33;7.60;99.90
21033;DHT22;10675;47.976;7.824;2022-11-20T04:20:59;7.60;99.90
21033;DHT22;10675;47.976;7.824;2022-11-20T04:23:26;7.60;99.90
21033;DHT22;10675;47.976;7.824;2022-11-20T04:25:52;7.60;99.90
21033;DHT22;10675;47.976;7.824;2022-11-20T04:28:18;7.60;99.90
21033;DHT22;10675;47.976;7.824;2022-11-20T04:30:44;7.60;99.90
21033;DHT22;10675;47.976;7.824;2022-11-20T04:33:10;7.60;99.90
21033;DHT22;10675;47.976;7.824;2022-11-20T04:35:37;7.60;99.90
21033;DHT22;10675;47.976;7.824;2022-11-20T04:38:03;7.60;99.90
21033;DHT22;10675;47.976;7.824;2022-11-20T04:40:29;7.50;99.90
21033;DHT22;10675;47.976;7.824;2022-11-20T04:42:55;7.50;99.90
21033;DHT22;10675;47.976;7.824;2022-11-20T04:45:22;7.50;99.90
21033;DHT22;10675;47.976;7.824;2022-11-20T04:47:48;7.50;99.90
21033;DHT22;10675;47.976;7.824;2022-11-20T04:50:13;7.40;99.90
21033;DHT22;10675;47.976;7.824;2022-11-20T04:52:39;7.40;99.90
21033;DHT22;10675;47.976;7.824;2022-11-20T04:55:05;7.40;99.90
21033;DHT22;10675;47.976;7.824;2022-11-20T04:57:31;7.40;99.90
21033;DHT22;10675;47.976;7.824;2022-11-20T04:59:56;7.40;99.90
21033;DHT22;10675;47.976;7.824;2022-11-20T05:02:23;7.40;99.90
21033;DHT22;10675;47.976;7.824;2022-11-20T05:04:48;7.40;99.90
21033;DHT22;10675;47.976;7.824;2022-11-20T05:07:14;7.40;99.90
21033;DHT22;10675;47.976;7.824;2022-11-20T05:09:40;7.40;99.90
21033;DHT22;10675;47.976;7.824;2022-11-20T05:12:07;7.40;99.90
21033;DHT22;10675;47.976;7.824;2022-11-20T05:14:33;7.40;99.90
21033;DHT22;10675;47.976;7.824;2022-11-20T05:16:59;7.40;99.90
21033;DHT22;10675;47.976;7.824;2022-11-20T05:19:25;7.40;99.90
21033;DHT22;10675;47.976;7.824;2022-11-20T05:21:50;7.40;99.90
21033;DHT22;10675;47.976;7.824;2022-11-20T05:24:16;7.40;99.90
21033;DHT22;10675;47.976;7.824;2022-11-20T05:26:41;7.40;99.90
21033;DHT22;10675;47.976;7.824;2022-11-20T05:29:10;7.40;99.90
21033;DHT22;10675;47.976;7.824;2022-11-20T05:31:36;7.40;99.90
21033;DHT22;10675;47.976;7.824;2022-11-20T05:34:03;7.50;99.90
21033;DHT22;10675;47.976;7.824;2022-11-20T05:36:30;7.60;99.90
21033;DHT22;10675;47.976;7.824;2022-11-20T05:38:55;7.70;99.90
21033;DHT22;10675;47.976;7.824;2022-11-20T05:41:21;7.60;99.90
21033;DHT22;10675;47.976;7.824;2022-11-20T05:43:47;7.70;99.90
21033;DHT22;10675;47.976;7.824;2022-11-20T05:46:15;7.70;99.90
21033;DHT22;10675;47.976;7.824;2022-11-20T05:48:42;7.80;99.90
21033;DHT22;10675;47.976;7.824;2022-11-20T05:51:12;7.60;99.90
21033;DHT22;10675;47.976;7.824;2022-11-20T05:53:38;7.50;99.90
21033;DHT22;10675;47.976;7.824;2022-11-20T05:56:15;7.40;99.90
21033;DHT22;10675;47.976;7.824;2022-11-20T05:58:41;7.40;99.90
21033;DHT22;10675;47.976;7.824;2022-11-20T06:01:13;7.40;99.90
21033;DHT22;10675;47.976;7.824;2022-11-20T06:03:40;7.40;99.90
21033;DHT22;10675;47.976;7.824;2022-11-20T06:06:07;7.40;99.90
21033;DHT22;10675;47.976;7.824;2022-11-20T06:08:33;7.40;99.90
21033;DHT22;10675;47.976;7.824;2022-11-20T06:11:06;7.40;99.90
21033;DHT22;10675;47.976;7.824;2022-11-20T06:13:33;7.40;99.90
21033;DHT22;10675;47.976;7.824;2022-11-20T06:15:58;7.40;99.90
21033;DHT22;10675;47.976;7.824;2022-11-20T06:18:26;7.40;99.90
21033;DHT22;10675;47.976;7.824;2022-11-20T06:21:06;7.40;99.90
21033;DHT22;10675;47.976;7.824;2022-11-20T06:23:33;7.40;99.90
21033;DHT22;10675;47.976;7.824;2022-11-20T06:26:10;7.40;99.90
21033;DHT22;10675;47.976;7.824;2022-11-20T06:28:36;7.40;99.90
21033;DHT22;10675;47.976;7.824;2022-11-20T06:31:02;7.40;99.90
21033;DHT22;10675;47.976;7.824;2022-11-20T06:33:27;7.30;99.90
21033;DHT22;10675;47.976;7.824;2022-11-20T06:35:57;7.30;99.90
21033;DHT22;10675;47.976;7.824;2022-11-20T06:38:23;7.30;99.90
21033;DHT22;10675;47.976;7.824;2022-11-20T06:40:49;7.30;99.90
21033;DHT22;10675;47.976;7.824;2022-11-20T06:43:14;7.30;99.90
21033;DHT22;10675;47.976;7.824;2022-11-20T06:45:40;7.30;99.90
21033;DHT22;10675;47.976;7.824;2022-11-20T06:48:06;7.30;99.90
21033;DHT22;10675;47.976;7.824;2022-11-20T06:50:31;7.40;99.90
21033;DHT22;10675;47.976;7.824;2022-11-20T06:53:00;7.40;99.90
21033;DHT22;10675;47.976;7.824;2022-11-20T06:55:26;7.40;99.90
21033;DHT22;10675;47.976;7.824;2022-11-20T06:57:51;7.40;99.90
21033;DHT22;10675;47.976;7.824;2022-11-20T07:00:17;7.40;99.90
21033;DHT22;10675;47.976;7.824;2022-11-20T07:02:43;7.40;99.90
21033;DHT22;10675;47.976;7.824;2022-11-20T07:05:08;7.40;99.90
21033;DHT22;10675;47.976;7.824;2022-11-20T07:07:34;7.40;99.90
21033;DHT22;10675;47.976;7.824;2022-11-20T07:09:59;7.40;99.90
21033;DHT22;10675;47.976;7.824;2022-11-20T07:12:25;7.50;99.90
21033;DHT22;10675;47.976;7.824;2022-11-20T07:14:50;7.50;99.90
21033;DHT22;10675;47.976;7.824;2022-11-20T07:17:16;7.50;99.90
21033;DHT22;10675;47.976;7.824;2022-11-20T07:19:41;7.50;99.90
21033;DHT22;10675;47.976;7.824;2022-11-20T07:22:08;7.50;99.90
21033;DHT22;10675;47.976;7.824;2022-11-20T07:24:34;7.50;99.90
21033;DHT22;10675;47.976;7.824;2022-11-20T07:27:00;7.50;99.90
21033;DHT22;10675;47.976;7.824;2022-11-20T07:29:26;7.60;99.90
21033;DHT22;10675;47.976;7.824;2022-11-20T07:31:51;7.60;99.90
21033;DHT22;10675;47.976;7.824;2022-11-20T07:34:17;7.60;99.90
21033;DHT22;10675;47.976;7.824;2022-11-20T07:36:42;7.60;99.90
21033;DHT22;10675;47.976;7.824;2022-11-20T07:39:08;7.50;99.90
21033;DHT22;10675;47.976;7.824;2022-11-20T07:41:33;7.50;99.90
21033;DHT22;10675;47.976;7.824;2022-11-20T07:43:59;7.50;99.90
21033;DHT22;10675;47.976;7.824;2022-11-20T07:46:24;7.60;99.90
21033;DHT22;10675;47.976;7.824;2022-11-20T07:48:50;7.50;99.90
21033;DHT22;10675;47.976;7.824;2022-11-20T07:51:16;7.50;99.90
21033;DHT22;10675;47.976;7.824;2022-11-20T07:53:41;7.50;99.90
21033;DHT22;10675;47.976;7.824;2022-11-20T07:56:07;7.40;99.90
21033;DHT22;10675;47.976;7.824;2022-11-20T07:58:32;7.40;99.90
21033;DHT22;10675;47.976;7.824;2022-11-20T08:01:08;7.40;99.90
21033;DHT22;10675;47.976;7.824;2022-11-20T08:03:35;7.30;99.90
21033;DHT22;10675;47.976;7.824;2022-11-20T08:06:03;7.30;99.90
21033;DHT22;10675;47.976;7.824;2022-11-20T08:08:29;7.30;99.90
21033;DHT22;10675;47.976;7.824;2022-11-20T08:10:57;7.30;99.90
21033;DHT22;10675;47.976;7.824;2022-11-20T08:13:42;7.30;99.90
21033;DHT22;10675;47.976;7.824;2022-11-20T08:16:27;7.20;99.90
21033;DHT22;10675;47.976;7.824;2022-11-20T08:18:53;7.30;99.90
21033;DHT22;10675;47.976;7.824;2022-11-20T08:21:19;7.30;99.90
21033;DHT22;10675;47.976;7.824;2022-11-20T08:23:44;7.30;99.90
21033;DHT22;10675;47.976;7.824;2022-11-20T08:26:10;7.30;99.90
21033;DHT22;10675;47.976;7.824;2022-11-20T08:28:35;7.30;99.90
21033;DHT22;10675;47.976;7.824;2022-11-20T08:31:02;7.30;99.90
21033;DHT22;10675;47.976;7.824;2022-11-20T08:33:28;7.40;99.90
21033;DHT22;10675;47.976;7.824;2022-11-20T08:36:01;7.40;99.90
21033;DHT22;10675;47.976;7.824;2022-11-20T08:38:27;7.40;99.90
21033;DHT22;10675;47.976;7.824;2022-11-20T08:40:57;7.40;99.90
21033;DHT22;10675;47.976;7.824;2022-11-20T08:43:41;7.50;99.90
21033;DHT22;10675;47.976;7.824;2022-11-20T08:46:06;7.50;99.90
21033;DHT22;10675;47.976;7.824;2022-11-20T08:48:32;7.50;99.90
21033;DHT22;10675;47.976;7.824;2022-11-20T08:50:58;7.50;99.90
21033;DHT22;10675;47.976;7.824;2022-11-20T08:53:24;7.50;99.90
21033;DHT22;10675;47.976;7.824;2022-11-20T08:55:50;7.60;99.90
21033;DHT22;10675;47.976;7.824;2022-11-20T08:58:16;7.60;99.90
21033;DHT22;10675;47.976;7.824;2022-11-20T09:00:41;7.70;99.90
21033;DHT22;10675;47.976;7.824;2022-11-20T09:03:07;7.70;99.90
21033;DHT22;10675;47.976;7.824;2022-11-20T09:05:32;7.60;99.90
21033;DHT22;10675;47.976;7.824;2022-11-20T09:07:58;7.70;99.90
21033;DHT22;10675;47.976;7.824;2022-11-20T09:10:24;7.70;99.90
21033;DHT22;10675;47.976;7.824;2022-11-20T09:12:50;7.70;99.90
21033;DHT22;10675;47.976;7.824;2022-11-20T09:15:17;7.60;99.90
21033;DHT22;10675;47.976;7.824;2022-11-20T09:17:49;7.60;99.90
21033;DHT22;10675;47.976;7.824;2022-11-20T09:20:15;7.60;99.90
21033;DHT22;10675;47.976;7.824;2022-11-20T09:22:41;7.60;99.90
21033;DHT22;10675;47.976;7.824;2022-11-20T09:25:07;7.60;99.90
21033;DHT22;10675;47.976;7.824;2022-11-20T09:27:33;7.60;99.90
21033;DHT22;10675;47.976;7.824;2022-11-20T09:29:58;7.70;99.90
21033;DHT22;10675;47.976;7.824;2022-11-20T09:32:24;7.70;99.90
21033;DHT22;10675;47.976;7.824;2022-11-20T09:34:49;7.70;99.90
21033;DHT22;10675;47.976;7.824;2022-11-20T09:37:15;7.70;99.90
21033;DHT22;10675;47.976;7.824;2022-11-20T09:39:40;7.70;99.90
21033;DHT22;10675;47.976;7.824;2022-11-20T09:42:12;7.70;99.90
21033;DHT22;10675;47.976;7.824;2022-11-20T09:44:56;7.70;99.90
21033;DHT22;10675;47.976;7.824;2022-11-20T09:50:36;7.80;99.90
21033;DHT22;10675;47.976;7.824;2022-11-20T09:53:30;7.80;99.90
21033;DHT22;10675;47.976;7.824;2022-11-20T09:55:58;7.90;99.90
21033;DHT22;10675;47.976;7.824;2022-11-20T09:58:40;8.00;99.90
21033;DHT22;10675;47.976;7.824;2022-11-20T10:01:18;8.00;99.90
21033;DHT22;10675;47.976;7.824;2022-11-20T10:06:34;7.90;99.90
21033;DHT22;10675;47.976;7.824;2022-11-20T10:17:30;8.00;99.90
21033;DHT22;10675;47.976;7.824;2022-11-20T10:23:29;8.00;99.90
21033;DHT22;10675;47.976;7.824;2022-11-20T10:31:37;8.00;99.90
21033;DHT22;10675;47.976;7.824;2022-11-20T10:34:28;7.90;99.90
21033;DHT22;10675;47.976;7.824;2022-11-20T10:36:59;7.90;99.90
21033;DHT22;10675;47.976;7.824;2022-11-20T10:42:17;8.00;99.90
21033;DHT22;10675;47.976;7.824;2022-11-20T10:45:09;8.10;99.90
21033;DHT22;10675;47.976;7.824;2022-11-20T10:47:36;8.10;99.90
21033;DHT22;10675;47.976;7.824;2022-11-20T10:50:04;8.10;99.90
21033;DHT22;10675;47.976;7.824;2022-11-20T11:01:13;8.30;99.90
21033;DHT22;10675;47.976;7.824;2022-11-20T11:03:39;8.30;99.90
21033;DHT22;10675;47.976;7.824;2022-11-20T11:08:36;8.30;99.90
21033;DHT22;10675;47.976;7.824;2022-11-20T11:11:24;8.30;99.90
21033;DHT22;10675;47.976;7.824;2022-11-20T11:13:51;8.40;99.90
21033;DHT22;10675;47.976;7.824;2022-11-20T11:16:26;8.50;99.90
21033;DHT22;10675;47.976;7.824;2022-11-20T11:19:03;8.50;99.90
21033;DHT22;10675;47.976;7.824;2022-11-20T11:21:29;8.60;99.90
21033;DHT22;10675;47.976;7.824;2022-11-20T11:24:00;8.60;99.90
21033;DHT22;10675;47.976;7.824;2022-11-20T11:26:27;8.60;99.90
21033;DHT22;10675;47.976;7.824;2022-11-20T11:28:58;8.50;99.90
21033;DHT22;10675;47.976;7.824;2022-11-20T11:31:25;8.50;99.90
21033;DHT22;10675;47.976;7.824;2022-11-20T11:33:51;8.50;99.90
21033;DHT22;10675;47.976;7.824;2022-11-20T11:36:20;8.40;99.90
21033;DHT22;10675;47.976;7.824;2022-11-20T11:38:51;8.40;99.90
21033;DHT22;10675;47.976;7.824;2022-11-20T11:41:20;8.40;99.90
21033;DHT22;10675;47.976;7.824;2022-11-20T11:43:52;8.40;99.90
21033;DHT22;10675;47.976;7.824;2022-11-20T11:46:39;8.40;99.90
21033;DHT22;10675;47.976;7.824;2022-11-20T11:51:56;8.40;99.90
21033;DHT22;10675;47.976;7.824;2022-11-20T11:54:30;8.70;99.90
21033;DHT22;10675;47.976;7.824;2022-11-20T11:57:00;8.70;99.90
21033;DHT22;10675;47.976;7.824;2022-11-20T11:59:55;8.70;99.90
21033;DHT22;10675;47.976;7.824;2022-11-20T12:05:45;8.90;99.90
21033;DHT22;10675;47.976;7.824;2022-11-20T12:08:23;8.90;99.90
21033;DHT22;10675;47.976;7.824;2022-11-20T12:10:57;9.00;99.90
21033;DHT22;10675;47.976;7.824;2022-11-20T12:16:00;9.50;99.90
21033;DHT22;10675;47.976;7.824;2022-11-20T12:18:27;9.70;99.90
21033;DHT22;10675;47.976;7.824;2022-11-20T12:23:44;9.60;99.90
21033;DHT22;10675;47.976;7.824;2022-11-20T12:29:14;9.40;99.90
21033;DHT22;10675;47.976;7.824;2022-11-20T12:31:52;9.10;99.90
21033;DHT22;10675;47.976;7.824;2022-11-20T12:39:49;8.90;99.90
21033;DHT22;10675;47.976;7.824;2022-11-20T12:53:37;8.80;99.90
21033;DHT22;10675;47.976;7.824;2022-11-20T12:56:27;8.80;99.90
21033;DHT22;10675;47.976;7.824;2022-11-20T13:01:50;8.80;99.90
21033;DHT22;10675;47.976;7.824;2022-11-20T13:06:46;8.90;99.90
21033;DHT22;10675;47.976;7.824;2022-11-20T13:09:15;8.80;99.90
21033;DHT22;10675;47.976;7.824;2022-11-20T13:17:11;8.90;99.90
21033;DHT22;10675;47.976;7.824;2022-11-20T13:19:40;9.00;99.90
21033;DHT22;10675;47.976;7.824;2022-11-20T13:22:08;9.10;99.90
21033;DHT22;10675;47.976;7.824;2022-11-20T13:24:34;9.10;99.90
21033;DHT22;10675;47.976;7.824;2022-11-20T13:27:19;9.10;99.90
21033;DHT22;10675;47.976;7.824;2022-11-20T13:29:57;9.10;99.90
21033;DHT22;10675;47.976;7.824;2022-11-20T13:32:24;9.10;99.90
21033;DHT22;10675;47.976;7.824;2022-11-20T13:35:04;9.30;99.90
21033;DHT22;10675;47.976;7.824;2022-11-20T13:37:32;9.60;99.90
21033;DHT22;10675;47.976;7.824;2022-11-20T13:40:25;9.80;99.90
21033;DHT22;10675;47.976;7.824;2022-11-20T13:45:27;9.50;99.90
21033;DHT22;10675;47.976;7.824;2022-11-20T13:47:53;9.50;99.90
21033;DHT22;10675;47.976;7.824;2022-11-20T13:50:26;9.70;99.90
21033;DHT22;10675;47.976;7.824;2022-11-20T13:53:09;9.90;99.90
21033;DHT22;10675;47.976;7.824;2022-11-20T13:55:54;9.70;99.90
21033;DHT22;10675;47.976;7.824;2022-11-20T13:58:40;9.60;99.90
21033;DHT22;10675;47.976;7.824;2022-11-20T14:03:35;9.60;99.90
21033;DHT22;10675;47.976;7.824;2022-11-20T14:06:04;9.50;99.90
21033;DHT22;10675;47.976;7.824;2022-11-20T14:08:38;9.30;99.90
21033;DHT22;10675;47.976;7.824;2022-11-20T14:11:18;9.10;99.90
21033;DHT22;10675;47.976;7.824;2022-11-20T14:16:40;8.90;99.90
21033;DHT22;10675;47.976;7.824;2022-11-20T14:21:48;8.80;99.90
21033;DHT22;10675;47.976;7.824;2022-11-20T14:24:18;8.90;99.90
21033;DHT22;10675;47.976;7.824;2022-11-20T14:26:45;9.00;99.90
21033;DHT22;10675;47.976;7.824;2022-11-20T14:29:19;9.00;99.90
21033;DHT22;10675;47.976;7.824;2022-11-20T14:31:46;9.00;99.90
21033;DHT22;10675;47.976;7.824;2022-11-20T14:34:19;8.90;99.90
21033;DHT22;10675;47.976;7.824;2022-11-20T14:36:45;8.80;99.90
21033;DHT22;10675;47.976;7.824;2022-11-20T14:39:20;8.80;99.90
21033;DHT22;10675;47.976;7.824;2022-11-20T14:41:53;8.70;99.90
21033;DHT22;10675;47.976;7.824;2022-11-20T14:44:32;8.70;99.90
21033;DHT22;10675;47.976;7.824;2022-11-20T14:47:00;8.80;99.90
21033;DHT22;10675;47.976;7.824;2022-11-20T14:49:26;8.70;99.90
21033;DHT22;10675;47.976;7.824;2022-11-20T14:57:31;8.70;99.90
21033;DHT22;10675;47.976;7.824;2022-11-20T15:02:33;8.60;99.90
21033;DHT22;10675;47.976;7.824;2022-11-20T15:05:00;8.60;99.90
21033;DHT22;10675;47.976;7.824;2022-11-20T15:07:41;8.60;99.90
21033;DHT22;10675;47.976;7.824;2022-11-20T15:10:13;8.60;99.90
21033;DHT22;10675;47.976;7.824;2022-11-20T15:12:52;8.60;99.90
21033;DHT22;10675;47.976;7.824;2022-11-20T15:17:59;8.50;99.90
21033;DHT22;10675;47.976;7.824;2022-11-20T15:20:28;8.50;99.90
21033;DHT22;10675;47.976;7.824;2022-11-20T15:22:55;8.50;99.90
21033;DHT22;10675;47.976;7.824;2022-11-20T15:25:20;8.50;99.90
21033;DHT22;10675;47.976;7.824;2022-11-20T15:27:56;8.40;99.90
21033;DHT22;10675;47.976;7.824;2022-11-20T15:30:22;8.40;99.90
21033;DHT22;10675;47.976;7.824;2022-11-20T15:32:48;8.40;99.90
21033;DHT22;10675;47.976;7.824;2022-11-20T15:35:14;8.40;99.90
21033;DHT22;10675;47.976;7.824;2022-11-20T15:37:40;8.40;99.90
21033;DHT22;10675;47.976;7.824;2022-11-20T15:40:07;8.40;99.90
21033;DHT22;10675;47.976;7.824;2022-11-20T15:42:33;8.50;99.90
21033;DHT22;10675;47.976;7.824;2022-11-20T15:44:59;8.50;99.90
21033;DHT22;10675;47.976;7.824;2022-11-20T15:47:34;8.50;99.90
21033;DHT22;10675;47.976;7.824;2022-11-20T15:50:00;8.50;99.90
21033;DHT22;10675;47.976;7.824;2022-11-20T15:52:26;8.50;99.90
21033;DHT22;10675;47.976;7.824;2022-11-20T15:54:51;8.40;99.90
21033;DHT22;10675;47.976;7.824;2022-11-20T15:57:17;8.40;99.90
21033;DHT22;10675;47.976;7.824;2022-11-20T15:59:42;8.40;99.90
21033;DHT22;10675;47.976;7.824;2022-11-20T16:02:12;8.40;99.90
21033;DHT22;10675;47.976;7.824;2022-11-20T16:04:38;8.50;99.90
21033;DHT22;10675;47.976;7.824;2022-11-20T16:07:04;8.50;99.90
21033;DHT22;10675;47.976;7.824;2022-11-20T16:09:30;8.50;99.90
21033;DHT22;10675;47.976;7.824;2022-11-20T16:11:55;8.50;99.90
21033;DHT22;10675;47.976;7.824;2022-11-20T16:14:21;8.50;99.90
21033;DHT22;10675;47.976;7.824;2022-11-20T16:17:05;8.50;99.90
21033;DHT22;10675;47.976;7.824;2022-11-20T16:19:31;8.60;99.90
21033;DHT22;10675;47.976;7.824;2022-11-20T16:21:59;8.60;99.90
21033;DHT22;10675;47.976;7.824;2022-11-20T16:24:29;8.60;99.90
21033;DHT22;10675;47.976;7.824;2022-11-20T16:26:55;8.60;99.90
21033;DHT22;10675;47.976;7.824;2022-11-20T16:29:21;8.60;99.90
21033;DHT22;10675;47.976;7.824;2022-11-20T16:31:46;8.60;99.90
21033;DHT22;10675;47.976;7.824;2022-11-20T16:34:12;8.50;99.90
21033;DHT22;10675;47.976;7.824;2022-11-20T16:36:41;8.60;99.90
21033;DHT22;10675;47.976;7.824;2022-11-20T16:39:07;8.60;99.90
21033;DHT22;10675;47.976;7.824;2022-11-20T16:41:34;8.50;99.90
21033;DHT22;10675;47.976;7.824;2022-11-20T16:44:01;8.50;99.90
21033;DHT22;10675;47.976;7.824;2022-11-20T16:46:29;8.50;99.90
21033;DHT22;10675;47.976;7.824;2022-11-20T16:49:03;8.50;99.90
21033;DHT22;10675;47.976;7.824;2022-11-20T16:51:30;8.50;99.90
21033;DHT22;10675;47.976;7.824;2022-11-20T16:53:56;8.50;99.90
21033;DHT22;10675;47.976;7.824;2022-11-20T16:56:26;8.50;99.90
21033;DHT22;10675;47.976;7.824;2022-11-20T16:58:53;8.50;99.90
21033;DHT22;10675;47.976;7.824;2022-11-20T17:01:21;8.50;99.90
21033;DHT22;10675;47.976;7.824;2022-11-20T17:03:56;8.40;99.90
21033;DHT22;10675;47.976;7.824;2022-11-20T17:06:25;8.50;99.90
21033;DHT22;10675;47.976;7.824;2022-11-20T17:08:50;8.50;99.90
21033;DHT22;10675;47.976;7.824;2022-11-20T17:11:18;8.50;99.90
21033;DHT22;10675;47.976;7.824;2022-11-20T17:13:45;8.40;99.90
21033;DHT22;10675;47.976;7.824;2022-11-20T17:16:18;8.40;99.90
21033;DHT22;10675;47.976;7.824;2022-11-20T17:18:44;8.40;99.90
21033;DHT22;10675;47.976;7.824;2022-11-20T17:21:11;8.40;99.90
21033;DHT22;10675;47.976;7.824;2022-11-20T17:23:39;8.40;99.90
21033;DHT22;10675;47.976;7.824;2022-11-20T17:26:12;8.40;99.90
21033;DHT22;10675;47.976;7.824;2022-11-20T17:28:44;8.40;99.90
21033;DHT22;10675;47.976;7.824;2022-11-20T17:31:13;9.10;99.90
21033;DHT22;10675;47.976;7.824;2022-11-20T17:33:40;10.70;99.90
21033;DHT22;10675;47.976;7.824;2022-11-20T17:36:07;11.20;99.90
21033;DHT22;10675;47.976;7.824;2022-11-20T17:38:34;11.80;99.90